Time;durP1;ratioP1;P1;durP2;ratioP2;P2;SDS_P1;SDS_P2;PMS_P1;PMS_P2;Temp;Humidity;BMP_temperature;BMP_pressure;BME280_temperature;BME280_humidity;BME280_pressure;Samples;Min_cycle;Max_cycle;Signal;HPM_P1;HPM_P2
2023/03/23 00:00:10;;;;;;;36.83;17.90;;;;;;;7.67;69.15;100355.34;4928987;28;20059;-66
2023/03/23 00:02:41;;;;;;;41.10;18.02;;;;;;;7.71;68.45;100357.06;4929017;27;20036;-68
2023/03/23 00:05:11;;;;;;;35.55;17.48;;;;;;;7.87;67.72;100357.00;4928211;28;20496;-69
2023/03/23 00:07:45;;;;;;;32.10;18.33;;;;;;;8.02;67.53;100362.16;4927996;28;20504;-67
2023/03/23 00:10:14;;;;;;;35.53;16.35;;;;;;;8.08;66.89;100359.50;4947485;28;20132;-68
2023/03/23 00:12:44;;;;;;;35.78;16.58;;;;;;;8.13;66.50;100355.13;4944707;28;20045;-67
2023/03/23 00:15:16;;;;;;;36.90;16.92;;;;;;;8.11;66.29;100351.72;4940835;28;20857;-67
2023/03/23 00:17:46;;;;;;;31.58;15.52;;;;;;;8.21;66.45;100353.38;4940076;28;20135;-67
2023/03/23 00:20:15;;;;;;;32.78;16.38;;;;;;;8.34;66.02;100364.59;4929904;28;20047;-67
2023/03/23 00:22:45;;;;;;;33.95;17.23;;;;;;;8.50;65.82;100352.38;4927953;28;20056;-68
2023/03/23 00:25:16;;;;;;;30.35;16.10;;;;;;;8.70;65.38;100351.38;4945702;28;21560;-60
2023/03/23 00:27:45;;;;;;;38.35;15.20;;;;;;;8.89;64.76;100360.78;4947028;28;20109;-63
2023/03/23 00:30:14;;;;;;;29.45;14.70;;;;;;;8.88;64.24;100340.78;4927285;28;20050;-63
2023/03/23 00:32:43;;;;;;;29.48;14.73;;;;;;;9.00;64.12;100345.91;4930863;28;20053;-65
2023/03/23 00:35:13;;;;;;;28.67;13.95;;;;;;;9.17;63.65;100347.50;4936902;28;20071;-62
2023/03/23 00:37:43;;;;;;;34.42;13.25;;;;;;;9.21;63.23;100334.44;4952676;28;20059;-64
2023/03/23 00:40:13;;;;;;;29.13;13.48;;;;;;;9.28;63.02;100330.00;4953419;28;20141;-62
2023/03/23 00:42:43;;;;;;;29.60;12.23;;;;;;;9.32;62.94;100336.06;4937440;28;20053;-63
2023/03/23 00:45:13;;;;;;;24.05;12.13;;;;;;;9.34;62.78;100316.94;4954333;28;20175;-63
2023/03/23 00:47:46;;;;;;;27.88;12.73;;;;;;;9.53;62.83;100314.09;4957726;27;20056;-63
2023/03/23 00:50:17;;;;;;;31.05;12.85;;;;;;;9.42;62.43;100285.53;4950357;27;20379;-60
2023/03/23 00:52:46;;;;;;;30.10;11.93;;;;;;;9.63;62.13;100302.69;4931804;27;20051;-62
2023/03/23 00:55:14;;;;;;;28.08;13.30;;;;;;;9.66;62.02;100313.97;4952279;27;20039;-59
2023/03/23 00:57:44;;;;;;;30.60;13.48;;;;;;;9.56;61.79;100308.84;4930752;27;20290;-61
2023/03/23 01:00:14;;;;;;;30.05;13.75;;;;;;;9.46;62.03;100308.97;4936874;27;20469;-62
2023/03/23 01:02:44;;;;;;;32.08;13.90;;;;;;;9.46;62.52;100301.16;4954111;27;20068;-62
2023/03/23 01:05:14;;;;;;;30.60;12.77;;;;;;;9.33;62.33;100288.25;4938615;28;20227;-63
2023/03/23 01:07:45;;;;;;;28.05;13.05;;;;;;;9.46;62.49;100285.50;4953048;27;20053;-60
2023/03/23 01:10:17;;;;;;;26.23;13.52;;;;;;;9.37;61.98;100264.72;4952457;27;20582;-59
2023/03/23 01:12:46;;;;;;;25.92;13.45;;;;;;;9.42;62.15;100273.38;4950593;27;20051;-60
2023/03/23 01:15:17;;;;;;;31.15;13.13;;;;;;;9.29;62.10;100253.53;4952470;27;20146;-62
2023/03/23 01:17:46;;;;;;;30.85;12.90;;;;;;;9.39;61.95;100270.78;4927807;28;20088;-61
2023/03/23 01:20:17;;;;;;;20.90;11.50;;;;;;;9.49;61.87;100250.69;4930997;27;20192;-62
2023/03/23 01:22:47;;;;;;;29.63;13.15;;;;;;;9.68;61.91;100259.13;4928949;27;20528;-62
2023/03/23 01:25:16;;;;;;;32.08;13.10;;;;;;;9.62;61.58;100227.91;4951141;27;20055;-61
2023/03/23 01:27:45;;;;;;;28.98;13.75;;;;;;;9.83;61.47;100251.09;4931376;28;20063;-61
2023/03/23 01:30:15;;;;;;;35.88;14.27;;;;;;;9.88;60.73;100244.09;4932910;27;20485;-62
2023/03/23 01:32:44;;;;;;;39.10;12.90;;;;;;;9.90;60.95;100244.06;4949508;27;20051;-62
2023/03/23 01:35:14;;;;;;;31.17;13.10;;;;;;;9.94;60.80;100244.00;4954279;27;20076;-62
2023/03/23 01:37:43;;;;;;;38.20;14.38;;;;;;;9.96;60.56;100240.50;4931698;28;20237;-62
2023/03/23 01:40:15;;;;;;;34.83;13.18;;;;;;;9.87;60.71;100229.31;4955356;27;20060;-61
2023/03/23 01:42:44;;;;;;;29.45;11.88;;;;;;;9.79;60.96;100222.47;4931320;27;20055;-63
2023/03/23 01:45:29;;;;;;;31.13;13.50;;;;;;;9.74;60.94;100225.16;4951868;27;20139;-61
2023/03/23 01:48:14;;;;;;;31.85;12.15;;;;;;;9.78;60.97;100224.19;4938443;27;20079;-61
2023/03/23 01:50:51;;;;;;;28.95;12.43;;;;;;;9.49;61.07;100220.25;4939366;27;20124;-60
2023/03/23 01:53:21;;;;;;;34.72;12.50;;;;;;;9.27;61.69;100224.00;4931070;27;20533;-63
2023/03/23 01:55:55;;;;;;;28.92;11.65;;;;;;;9.16;62.27;100223.25;4946370;27;20449;-61
2023/03/23 01:58:28;;;;;;;26.83;11.75;;;;;;;9.19;62.41;100212.81;4921797;27;20058;-61
2023/03/23 02:01:01;;;;;;;32.25;11.82;;;;;;;9.54;61.71;100201.09;4930369;28;20040;-61
2023/03/23 02:03:31;;;;;;;24.90;10.70;;;;;;;9.77;61.18;100199.00;4949349;27;20353;-63
2023/03/23 02:06:00;;;;;;;22.42;10.13;;;;;;;9.70;60.30;100193.00;4930151;27;20043;-63
2023/03/23 02:08:30;;;;;;;26.55;10.73;;;;;;;9.79;60.23;100207.69;4948314;27;20377;-60
2023/03/23 02:11:00;;;;;;;;;;;;;;;9.81;60.49;100205.91;4930561;27;20423;-59
2023/03/23 02:13:29;;;;;;;29.80;11.43;;;;;;;9.79;60.54;100202.47;4930502;27;19923;-62
2023/03/23 02:16:11;;;;;;;24.93;12.13;;;;;;;9.74;60.55;100193.84;4948676;27;20055;-61
2023/03/23 02:18:57;;;;;;;29.30;13.02;;;;;;;9.79;60.45;100206.81;4936835;27;20375;-65
2023/03/23 02:21:57;;;;;;;30.60;13.45;;;;;;;9.53;61.20;100207.16;4934649;27;20074;-66
2023/03/23 02:24:45;;;;;;;28.33;12.57;;;;;;;9.47;61.34;100195.94;4922629;27;20055;-65
2023/03/23 02:27:22;;;;;;;34.80;13.77;;;;;;;9.39;61.17;100187.34;4921077;28;20126;-66
2023/03/23 02:30:16;;;;;;;34.72;13.55;;;;;;;8.63;61.32;100075.31;4929955;27;20051;-66
2023/03/23 02:33:22;;;;;;;33.33;13.55;;;;;;;9.46;61.17;100189.00;4908395;27;20054;-65
2023/03/23 02:35:57;;;;;;;24.98;12.93;;;;;;;9.55;61.07;100167.13;4899776;28;20659;-65
2023/03/23 02:38:31;;;;;;;29.17;13.27;;;;;;;9.83;60.70;100167.59;4948569;27;20051;-65
2023/03/23 02:41:03;;;;;;;33.45;11.98;;;;;;;9.91;60.26;100165.75;4928014;28;20047;-66
2023/03/23 02:43:39;;;;;;;33.70;11.60;;;;;;;10.13;60.16;100166.28;4923734;28;20071;-65
2023/03/23 02:46:09;;;;;;;26.73;12.02;;;;;;;10.21;59.07;100158.31;4930374;27;20051;-66
2023/03/23 02:48:41;;;;;;;33.83;11.50;;;;;;;10.30;58.92;100166.00;4932265;28;20069;-66
2023/03/23 02:51:13;;;;;;;26.17;11.35;;;;;;;10.26;58.90;100119.94;4944451;27;20047;-66
2023/03/23 02:53:44;;;;;;;27.88;11.55;;;;;;;10.64;58.35;100152.38;4937154;28;20057;-62
2023/03/23 02:56:15;;;;;;;27.17;11.10;;;;;;;10.87;57.68;100153.69;4938073;28;20051;-64
2023/03/23 02:58:44;;;;;;;22.60;9.90;;;;;;;10.88;57.29;100144.94;4937884;28;20056;-66
2023/03/23 03:01:38;;;;;;;18.48;8.90;;;;;;;10.92;57.85;100130.94;4938477;28;20090;-66
2023/03/23 03:04:12;;;;;;;24.23;9.93;;;;;;;10.95;57.40;100104.72;4936733;27;21006;-65
2023/03/23 03:06:51;;;;;;;27.63;10.00;;;;;;;11.19;56.71;100140.81;4929481;28;20065;-66
2023/03/23 03:09:29;;;;;;;28.45;10.10;;;;;;;11.19;56.91;100153.06;4917562;27;20529;-66
2023/03/23 03:12:02;;;;;;;19.77;10.07;;;;;;;10.91;56.85;100140.53;4935389;27;20059;-66
2023/03/23 03:14:36;;;;;;;23.73;9.77;;;;;;;10.69;57.45;100123.53;4930342;28;20504;-67
2023/03/23 03:17:12;;;;;;;21.73;8.77;;;;;;;10.51;58.17;100129.97;4920717;27;20138;-64
2023/03/23 03:19:44;;;;;;;20.10;8.70;;;;;;;10.35;58.41;100143.28;4945829;27;20085;-63
2023/03/23 03:22:15;;;;;;;24.50;9.63;;;;;;;10.09;58.78;100138.50;4922268;27;20080;-64
2023/03/23 03:24:45;;;;;;;20.45;9.43;;;;;;;9.94;58.85;100129.16;4928963;28;20059;-64
2023/03/23 03:27:18;;;;;;;26.88;9.75;;;;;;;9.93;58.99;100127.44;4936182;28;20055;-66
2023/03/23 03:29:51;;;;;;;30.83;10.57;;;;;;;9.76;59.16;100090.31;4934742;28;20055;-64
2023/03/23 03:32:24;;;;;;;17.20;8.23;;;;;;;9.57;59.59;100066.25;4938363;28;20040;-66
2023/03/23 03:34:53;;;;;;;23.52;9.65;;;;;;;9.95;59.68;100088.25;4927671;28;20045;-64
2023/03/23 03:37:24;;;;;;;18.70;8.93;;;;;;;10.17;59.45;100093.97;4950153;28;20065;-66
2023/03/23 03:39:52;;;;;;;21.65;8.90;;;;;;;10.20;59.04;100088.69;4942113;28;20049;-66
2023/03/23 03:42:21;;;;;;;28.33;9.68;;;;;;;10.16;59.29;100076.59;4946859;28;20063;-63
2023/03/23 03:44:50;;;;;;;17.77;8.50;;;;;;;10.26;59.96;100066.81;4936916;28;20466;-67
2023/03/23 03:47:19;;;;;;;20.13;8.93;;;;;;;10.51;60.03;100043.78;4936904;27;20078;-66
2023/03/23 03:49:48;;;;;;;21.52;8.75;;;;;;;10.79;60.30;100026.63;4942150;28;20196;-67
2023/03/23 03:52:17;;;;;;;15.38;8.13;;;;;;;10.40;60.06;99933.41;4937048;28;20538;-66
2023/03/23 03:54:47;;;;;;;14.38;8.13;;;;;;;10.95;60.06;100005.38;4952427;28;20104;-66
2023/03/23 03:57:19;;;;;;;20.75;8.52;;;;;;;11.04;60.00;100005.19;4945203;27;20370;-67
2023/03/23 03:59:48;;;;;;;25.20;10.15;;;;;;;10.96;59.41;99991.44;4936702;28;20084;-66
2023/03/23 04:02:19;;;;;;;17.52;9.13;;;;;;;10.80;59.39;99999.59;4944217;27;20081;-65
2023/03/23 04:04:48;;;;;;;19.30;9.32;;;;;;;10.74;59.03;100023.25;4964633;27;20051;-66
2023/03/23 04:07:18;;;;;;;17.65;9.10;;;;;;;10.36;59.13;100010.97;4942849;28;20116;-66
2023/03/23 04:09:49;;;;;;;28.40;9.95;;;;;;;10.21;59.66;99972.03;4933169;27;20048;-65
2023/03/23 04:12:18;;;;;;;25.65;11.65;;;;;;;10.15;59.54;99986.09;4958540;28;20458;-66
2023/03/23 04:14:47;;;;;;;29.67;11.75;;;;;;;10.22;58.98;100008.56;4934535;28;20051;-66
2023/03/23 04:17:17;;;;;;;29.10;11.93;;;;;;;10.01;58.32;99993.31;4936899;28;20384;-65
2023/03/23 04:19:47;;;;;;;;;;;;;;;9.83;58.77;99986.66;4933227;28;20044;-65
2023/03/23 04:22:17;;;;;;;28.67;12.25;;;;;;;9.58;59.04;99975.81;4958803;27;19927;-66
2023/03/23 04:24:45;;;;;;;;;;;;;;;9.09;59.53;99947.94;4935657;28;20052;-63
2023/03/23 04:27:16;;;;;;;26.98;11.70;;;;;;;9.09;60.06;100005.28;4940435;28;19924;-66
2023/03/23 04:29:48;;;;;;;28.77;12.32;;;;;;;8.66;61.13;99953.72;4936607;28;20104;-64
2023/03/23 04:32:18;;;;;;;25.35;13.07;;;;;;;8.63;61.78;99976.34;4936625;28;20060;-66
2023/03/23 04:34:47;;;;;;;30.05;13.60;;;;;;;8.53;62.34;99959.09;4935815;28;20135;-66
2023/03/23 04:37:16;;;;;;;31.55;12.98;;;;;;;8.68;62.43;99957.19;4936781;28;20511;-66
2023/03/23 04:39:45;;;;;;;30.73;12.48;;;;;;;8.83;62.06;99967.38;4936384;28;20126;-65
2023/03/23 04:42:15;;;;;;;32.03;12.70;;;;;;;8.95;62.13;99984.59;4934686;28;20062;-66
2023/03/23 04:44:44;;;;;;;29.25;11.85;;;;;;;9.09;61.60;99984.41;4939351;28;20059;-64
2023/03/23 04:47:13;;;;;;;23.75;11.82;;;;;;;9.06;61.44;99944.47;4943806;28;20173;-65
2023/03/23 04:49:42;;;;;;;22.10;10.90;;;;;;;9.06;61.58;99957.50;4942845;28;20052;-66
2023/03/23 04:52:11;;;;;;;21.67;11.43;;;;;;;9.00;61.91;99975.84;4949715;28;20050;-65
2023/03/23 04:54:39;;;;;;;27.80;12.45;;;;;;;8.79;62.11;99960.53;4940480;28;20059;-66
2023/03/23 04:57:09;;;;;;;29.65;12.50;;;;;;;8.68;63.26;99941.56;4933148;28;20075;-65
2023/03/23 04:59:40;;;;;;;28.42;12.77;;;;;;;8.67;63.95;99934.63;4944028;28;20054;-66
2023/03/23 05:02:09;;;;;;;26.60;13.15;;;;;;;8.73;64.17;99940.59;4935968;28;20116;-65
2023/03/23 05:04:40;;;;;;;29.50;12.90;;;;;;;8.56;64.59;99891.38;4939387;28;20062;-65
2023/03/23 05:07:09;;;;;;;25.60;12.95;;;;;;;8.64;64.83;99886.06;4938709;28;20035;-66
2023/03/23 05:09:38;;;;;;;29.75;12.75;;;;;;;8.85;64.76;99872.69;4944958;28;20514;-65
2023/03/23 05:12:09;;;;;;;27.88;12.98;;;;;;;9.02;64.38;99868.97;4940500;28;20047;-65
2023/03/23 05:14:42;;;;;;;29.08;12.60;;;;;;;9.29;63.59;99886.75;4932664;28;20043;-65
2023/03/23 05:17:12;;;;;;;25.08;11.82;;;;;;;9.24;63.85;99885.13;4936983;28;20039;-66
2023/03/23 05:19:41;;;;;;;;;;;;;;;9.19;63.44;99853.91;4950185;28;20047;-66
2023/03/23 05:22:12;;;;;;;27.25;12.65;;;;;;;9.06;63.81;99840.22;4936707;28;20012;-66
2023/03/23 05:24:42;;;;;;;25.67;12.30;;;;;;;9.01;64.07;99852.47;4933860;28;20076;-66
2023/03/23 05:27:11;;;;;;;30.35;12.63;;;;;;;8.75;63.67;99819.00;4951483;28;20171;-66
2023/03/23 05:29:42;;;;;;;30.02;13.73;;;;;;;8.77;63.38;99865.91;4941430;28;20134;-66
2023/03/23 05:32:10;;;;;;;27.50;13.02;;;;;;;8.59;63.46;99869.63;4935523;28;20357;-66
2023/03/23 05:34:40;;;;;;;35.10;13.10;;;;;;;8.26;63.63;99844.88;4943049;28;20040;-66
2023/03/23 05:37:09;;;;;;;26.30;13.10;;;;;;;8.15;64.21;99874.53;4942893;27;20039;-65
2023/03/23 05:39:38;;;;;;;28.30;12.75;;;;;;;7.74;64.83;99852.47;4937725;28;20035;-66
2023/03/23 05:42:10;;;;;;;27.42;12.85;;;;;;;7.76;65.54;99876.72;4944808;27;20051;-66
2023/03/23 05:44:39;;;;;;;26.52;12.77;;;;;;;7.69;66.12;99858.63;4945253;28;20875;-65
2023/03/23 05:47:09;;;;;;;31.38;12.20;;;;;;;7.58;66.19;99861.31;4942486;28;20049;-66
2023/03/23 05:49:38;;;;;;;27.13;12.98;;;;;;;7.57;66.40;99872.59;4941137;28;20055;-65
2023/03/23 05:52:10;;;;;;;27.00;13.18;;;;;;;7.53;66.79;99868.31;4935448;28;20050;-65
2023/03/23 05:54:39;;;;;;;27.52;13.40;;;;;;;7.31;67.00;99884.13;4940305;28;20051;-65
2023/03/23 05:57:08;;;;;;;39.47;13.77;;;;;;;7.17;67.70;99880.78;4941093;27;20063;-65
2023/03/23 05:59:37;;;;;;;30.83;12.57;;;;;;;6.99;68.52;99873.13;4967062;27;20053;-65
2023/03/23 06:02:08;;;;;;;29.13;11.82;;;;;;;7.00;68.60;99878.31;4938839;28;20109;-65
2023/03/23 06:04:37;;;;;;;22.77;11.85;;;;;;;6.93;68.82;99867.97;4956504;27;20066;-65
2023/03/23 06:07:06;;;;;;;29.58;12.68;;;;;;;6.78;68.76;99841.25;4938630;28;20040;-65
2023/03/23 06:09:35;;;;;;;27.10;12.40;;;;;;;6.81;69.46;99851.59;4931457;28;20467;-65
2023/03/23 06:12:04;;;;;;;29.58;13.27;;;;;;;6.84;68.99;99851.59;4929846;28;20066;-65
2023/03/23 06:14:33;;;;;;;30.75;13.75;;;;;;;6.83;69.46;99849.88;4931629;27;20070;-65
2023/03/23 06:17:02;;;;;;;35.53;13.40;;;;;;;6.83;69.56;99847.28;4935659;27;21840;-65
2023/03/23 06:19:34;;;;;;;31.38;13.60;;;;;;;6.81;69.50;99841.22;4942415;27;20049;-64
2023/03/23 06:22:02;;;;;;;40.13;14.25;;;;;;;6.85;69.86;99842.06;4931461;28;20163;-65
2023/03/23 06:24:32;;;;;;;38.88;15.00;;;;;;;6.93;69.93;99829.03;4939377;27;21024;-64
2023/03/23 06:27:01;;;;;;;34.28;13.95;;;;;;;6.95;69.71;99842.88;4940732;28;20051;-64
2023/03/23 06:29:31;;;;;;;29.35;14.57;;;;;;;6.95;69.99;99816.91;4928152;28;20385;-64
2023/03/23 06:32:02;;;;;;;38.05;13.98;;;;;;;6.56;69.30;99738.44;4929856;27;20092;-64
2023/03/23 06:34:33;;;;;;;36.38;14.23;;;;;;;6.98;69.56;99811.66;4930658;27;20071;-64
2023/03/23 06:37:02;;;;;;;34.45;13.63;;;;;;;7.08;69.51;99808.09;4924451;27;20044;-64
2023/03/23 06:39:31;;;;;;;31.00;13.13;;;;;;;7.06;69.38;99815.03;4940226;28;20456;-64
2023/03/23 06:42:00;;;;;;;28.92;13.00;;;;;;;7.00;69.33;99810.78;4947051;27;20062;-64
2023/03/23 06:44:29;;;;;;;28.80;14.65;;;;;;;6.97;69.54;99804.75;4928813;27;20055;-64
2023/03/23 06:46:58;;;;;;;36.25;14.43;;;;;;;6.97;69.56;99810.81;4949726;27;20532;-64
2023/03/23 06:49:27;;;;;;;33.90;14.38;;;;;;;6.99;69.38;99802.97;4931322;28;20047;-64
2023/03/23 06:52:00;;;;;;;34.92;12.77;;;;;;;6.90;69.29;99798.75;4930139;28;20052;-64
2023/03/23 06:54:29;;;;;;;32.95;12.50;;;;;;;6.93;69.68;99800.47;4929672;27;20075;-64
2023/03/23 06:56:58;;;;;;;25.40;11.88;;;;;;;6.90;69.48;99804.78;4929542;28;20059;-64
2023/03/23 06:59:27;;;;;;;35.88;11.10;;;;;;;6.86;69.52;99823.91;4930382;28;20048;-64
2023/03/23 07:01:56;;;;;;;26.45;11.57;;;;;;;6.84;69.33;99830.84;4927961;28;20071;-62
2023/03/23 07:04:25;;;;;;;33.30;12.35;;;;;;;6.83;69.73;99834.28;4930797;27;20099;-64
2023/03/23 07:06:53;;;;;;;32.80;11.50;;;;;;;6.82;69.33;99827.38;4930182;28;20044;-65
2023/03/23 07:09:25;;;;;;;21.45;10.20;;;;;;;6.66;68.96;99811.06;4934969;27;20056;-64
2023/03/23 07:11:53;;;;;;;27.50;10.80;;;;;;;6.36;69.23;99812.13;4928798;27;20039;-64
2023/03/23 07:14:22;;;;;;;28.70;12.00;;;;;;;6.26;70.32;99800.09;4937331;28;20061;-64
2023/03/23 07:16:51;;;;;;;32.35;11.48;;;;;;;5.97;70.71;99777.78;4940866;28;20211;-64
2023/03/23 07:19:20;;;;;;;28.60;11.45;;;;;;;6.05;70.70;99801.94;4930609;28;20186;-64
2023/03/23 07:21:49;;;;;;;37.88;11.48;;;;;;;5.92;70.94;99800.25;4929866;27;20039;-64
2023/03/23 07:24:19;;;;;;;28.20;11.68;;;;;;;5.78;71.24;99791.66;4928610;28;20048;-64
2023/03/23 07:26:49;;;;;;;28.45;12.45;;;;;;;5.68;72.20;99801.22;4928574;27;20039;-64
2023/03/23 07:29:18;;;;;;;28.27;12.40;;;;;;;5.61;72.32;99778.78;4929811;27;20130;-64
2023/03/23 07:31:47;;;;;;;26.75;10.90;;;;;;;5.55;72.76;99771.03;4928965;28;20903;-64
2023/03/23 07:34:16;;;;;;;24.55;11.60;;;;;;;5.48;72.99;99762.41;4930988;27;20323;-64
2023/03/23 07:36:45;;;;;;;24.48;10.32;;;;;;;5.45;73.61;99772.78;4929085;28;20052;-63
2023/03/23 07:39:14;;;;;;;29.50;11.90;;;;;;;5.35;73.48;99750.38;4929603;28;20055;-64
2023/03/23 07:41:43;;;;;;;31.60;12.00;;;;;;;5.29;73.67;99734.84;4929232;28;20432;-64
2023/03/23 07:44:18;;;;;;;27.33;11.35;;;;;;;5.32;74.16;99751.25;4929212;28;20047;-64
2023/03/23 07:46:47;;;;;;;26.45;10.82;;;;;;;5.32;73.87;99740.03;4928555;28;20062;-63
2023/03/23 07:49:17;;;;;;;27.73;11.85;;;;;;;5.32;74.38;99740.03;4929245;27;20442;-64
2023/03/23 07:51:46;;;;;;;32.50;12.50;;;;;;;5.31;74.25;99759.88;4930224;28;20043;-63
2023/03/23 07:54:16;;;;;;;32.38;12.35;;;;;;;5.31;74.40;99748.66;4929438;28;20051;-63
2023/03/23 07:56:45;;;;;;;;;;;;;;;5.23;74.45;99745.25;4928351;28;20051;-63
2023/03/23 07:59:15;;;;;;;30.13;13.60;;;;;;;4.93;74.63;99703.00;4947617;27;19934;-63
2023/03/23 08:01:44;;;;;;;35.03;13.88;;;;;;;5.17;74.49;99736.63;4928991;28;20854;-63
2023/03/23 08:04:15;;;;;;;36.80;13.15;;;;;;;5.14;74.76;99757.34;4947425;27;20060;-63
2023/03/23 08:06:43;;;;;;;33.72;14.20;;;;;;;5.12;75.10;99747.88;4928215;28;20061;-63
2023/03/23 08:09:40;;;;;;;29.33;12.88;;;;;;;5.07;75.14;99739.25;4934235;28;20885;-63
2023/03/23 08:12:15;;;;;;;35.05;13.52;;;;;;;5.02;75.33;99747.03;4913663;28;20051;-62
2023/03/23 08:15:28;;;;;;;31.15;14.18;;;;;;;5.04;75.69;99739.22;4917532;27;20090;-62
2023/03/23 08:18:03;;;;;;;37.10;13.48;;;;;;;4.96;75.67;99747.00;4917407;28;20047;-62
2023/03/23 08:20:35;;;;;;;34.38;14.98;;;;;;;4.98;75.59;99768.59;4945176;28;20087;-63
2023/03/23 08:23:07;;;;;;;37.42;13.82;;;;;;;4.95;75.74;99755.66;4947192;27;20139;-63
2023/03/23 08:25:36;;;;;;;38.72;14.68;;;;;;;4.94;76.09;99756.50;4927068;28;20134;-62
2023/03/23 08:28:06;;;;;;;38.75;16.48;;;;;;;4.71;76.13;99721.16;4940518;28;20047;-63
2023/03/23 08:30:36;;;;;;;43.25;19.10;;;;;;;4.88;76.21;99748.75;4926764;28;20059;-62
2023/03/23 08:33:06;;;;;;;54.33;18.90;;;;;;;4.92;76.64;99753.94;4927722;28;20059;-63
2023/03/23 08:35:35;;;;;;;42.92;18.23;;;;;;;4.98;76.27;99756.50;4946827;28;20063;-63
2023/03/23 08:38:05;;;;;;;44.58;19.50;;;;;;;4.98;76.19;99747.88;4926896;28;20447;-62
2023/03/23 08:40:37;;;;;;;46.70;19.00;;;;;;;4.95;76.31;99750.47;4946684;28;20454;-62
2023/03/23 08:43:12;;;;;;;44.65;17.90;;;;;;;4.98;76.60;99750.47;4926567;28;20051;-62
2023/03/23 08:45:44;;;;;;;44.17;20.77;;;;;;;5.03;76.48;99728.00;4915685;28;20060;-62
2023/03/23 08:48:29;;;;;;;51.97;21.00;;;;;;;4.98;76.91;99720.25;4929161;28;20459;-63
2023/03/23 08:51:01;;;;;;;48.65;21.20;;;;;;;5.03;77.54;99701.28;4916203;28;20090;-62
2023/03/23 08:53:31;;;;;;;41.00;21.13;;;;;;;4.99;78.03;99710.75;4924159;28;20062;-62
2023/03/23 08:56:06;;;;;;;43.55;20.75;;;;;;;4.99;78.14;99721.09;4927751;28;20048;-62
2023/03/23 08:58:35;;;;;;;50.45;21.48;;;;;;;4.87;78.37;99716.00;4915225;28;20063;-62
2023/03/23 09:01:07;;;;;;;59.63;25.88;;;;;;;4.84;78.91;99710.78;4926379;28;20664;-62
2023/03/23 09:03:41;;;;;;;47.05;21.80;;;;;;;4.76;78.89;99703.91;4945289;28;20079;-62
2023/03/23 09:06:12;;;;;;;58.05;28.15;;;;;;;4.69;79.09;99698.75;4926982;28;20539;-62
2023/03/23 09:08:42;;;;;;;53.50;22.83;;;;;;;4.65;79.51;99690.13;4929316;28;20040;-62
2023/03/23 09:11:18;;;;;;;71.70;27.85;;;;;;;4.60;79.93;99707.41;4941521;27;20055;-62
2023/03/23 09:13:50;;;;;;;52.72;24.98;;;;;;;4.43;80.09;99688.44;4920067;27;20051;-62
2023/03/23 09:16:19;;;;;;;44.03;21.45;;;;;;;4.38;80.81;99695.34;4930182;28;20485;-62
2023/03/23 09:18:50;;;;;;;47.85;22.63;;;;;;;4.37;80.69;99678.06;4928506;28;20384;-62
2023/03/23 09:21:22;;;;;;;52.78;23.05;;;;;;;4.32;81.53;99681.53;4927693;28;20449;-62
2023/03/23 09:23:58;;;;;;;43.25;22.55;;;;;;;4.36;82.01;99671.19;4929688;28;20117;-62
2023/03/23 09:26:45;;;;;;;47.88;22.33;;;;;;;4.46;82.40;99675.50;4920076;27;20054;-61
2023/03/23 09:29:14;;;;;;;42.10;23.60;;;;;;;4.43;82.37;99662.56;4929573;28;20143;-61
2023/03/23 09:31:49;;;;;;;49.72;21.70;;;;;;;4.46;82.80;99662.56;4927528;28;20530;-60
2023/03/23 09:34:23;;;;;;;43.95;22.88;;;;;;;4.49;82.95;99667.72;4927218;28;20067;-60
2023/03/23 09:36:52;;;;;;;44.03;22.77;;;;;;;4.43;83.05;99644.47;4936998;28;20064;-61
2023/03/23 09:39:25;;;;;;;53.83;23.65;;;;;;;4.49;83.09;99655.66;4939884;28;20123;-61
2023/03/23 09:42:10;;;;;;;48.42;24.58;;;;;;;4.37;83.00;99623.75;4929610;28;20259;-61
2023/03/23 09:44:55;;;;;;;58.05;25.23;;;;;;;4.47;82.53;99643.59;4917421;28;20052;-61
2023/03/23 09:47:35;;;;;;;56.67;25.60;;;;;;;4.27;82.53;99644.47;4918884;28;20343;-61
2023/03/23 09:50:13;;;;;;;57.70;29.90;;;;;;;4.22;82.19;99648.78;4919980;28;20119;-61
2023/03/23 09:52:59;;;;;;;59.67;29.23;;;;;;;4.19;82.32;99643.59;4937694;28;21212;-61
2023/03/23 09:55:30;;;;;;;63.30;30.75;;;;;;;4.09;82.84;99647.94;4917818;28;20116;-61
2023/03/23 09:58:04;;;;;;;51.83;26.98;;;;;;;4.16;83.00;99642.75;4928573;28;20139;-61
2023/03/23 10:00:37;;;;;;;55.03;24.92;;;;;;;4.22;83.71;99633.28;4921630;28;20487;-62
2023/03/23 10:03:16;;;;;;;49.65;24.02;;;;;;;4.18;83.25;99623.78;4929252;27;20055;-62
2023/03/23 10:05:48;;;;;;;45.35;26.13;;;;;;;4.08;83.14;99614.31;4918812;27;20051;-62
2023/03/23 10:08:24;;;;;;;60.97;26.45;;;;;;;3.95;84.03;99602.25;4928835;27;20039;-62
2023/03/23 10:11:03;;;;;;;51.20;24.30;;;;;;;4.08;84.25;99629.81;4920481;28;20094;-62
2023/03/23 10:13:57;;;;;;;49.70;22.38;;;;;;;3.98;84.15;99607.44;4925234;27;20063;-62
2023/03/23 10:16:31;;;;;;;50.10;23.30;;;;;;;4.03;84.47;99631.56;4915341;28;20121;-61
2023/03/23 10:19:06;;;;;;;50.30;23.10;;;;;;;4.03;84.72;99616.03;4927000;28;20417;-61
2023/03/23 10:21:42;;;;;;;49.22;24.08;;;;;;;4.13;84.67;99606.56;4931236;27;20056;-61
2023/03/23 10:24:16;;;;;;;48.55;23.83;;;;;;;4.14;84.52;99609.13;4940207;27;20112;-61
2023/03/23 10:27:00;;;;;;;43.45;25.17;;;;;;;4.20;84.62;99609.13;4929631;27;20556;-61
2023/03/23 10:29:34;;;;;;;45.85;23.92;;;;;;;4.28;84.66;99603.97;4929428;27;20062;-61
2023/03/23 10:32:11;;;;;;;46.58;23.75;;;;;;;4.31;84.68;99612.56;4919667;27;20044;-62
2023/03/23 10:34:46;;;;;;;35.05;21.10;;;;;;;4.24;84.64;99605.69;4925264;28;20059;-61
2023/03/23 10:37:22;;;;;;;46.10;20.77;;;;;;;4.15;84.81;99605.69;4931933;27;20055;-61
2023/03/23 10:39:56;;;;;;;41.53;21.98;;;;;;;3.80;85.11;99556.59;4911929;28;20049;-61
2023/03/23 10:42:31;;;;;;;47.10;20.83;;;;;;;4.11;85.48;99588.44;4923752;28;20040;-61
2023/03/23 10:45:02;;;;;;;40.28;21.85;;;;;;;4.15;85.53;99585.00;4926337;28;20496;-61
2023/03/23 10:47:33;;;;;;;41.63;21.95;;;;;;;4.14;85.85;99570.34;4925516;28;20059;-61
2023/03/23 10:50:12;;;;;;;41.95;21.35;;;;;;;4.14;86.09;99557.41;4911334;28;20486;-61
2023/03/23 10:52:44;;;;;;;48.85;24.50;;;;;;;4.08;86.48;99542.78;4921252;28;20075;-61
2023/03/23 10:55:19;;;;;;;42.10;22.88;;;;;;;4.04;86.35;99535.03;4916033;28;20049;-62
2023/03/23 10:58:16;;;;;;;;;;;;;;;;;;;;;
2023/03/23 11:01:14;;;;;;;77.13;34.50;;;;;;;3.94;86.74;99541.06;4905628;28;20478;-61
2023/03/23 11:03:48;;;;;;;89.53;36.55;;;;;;;3.83;87.18;99526.44;4914802;28;20478;-60
2023/03/23 11:06:30;;;;;;;98.53;42.38;;;;;;;3.88;87.26;99516.97;4921294;28;20386;-60
2023/03/23 11:09:17;;;;;;;66.13;31.65;;;;;;;3.86;87.33;99526.44;4915031;28;20050;-60
2023/03/23 11:11:54;;;;;;;56.95;31.00;;;;;;;3.61;87.61;99499.75;4910644;28;20186;-61
2023/03/23 11:14:28;;;;;;;57.45;30.02;;;;;;;3.78;87.60;99528.16;4914978;28;20060;-61
2023/03/23 11:17:00;;;;;;;68.68;34.13;;;;;;;3.79;88.28;99526.44;4921819;28;20130;-60
2023/03/23 11:19:31;;;;;;;59.22;31.38;;;;;;;3.73;88.06;99519.56;4922304;28;20482;-60
2023/03/23 11:22:22;;;;;;;59.42;29.50;;;;;;;3.68;88.71;99510.97;4920936;28;20056;-60
2023/03/23 11:24:59;;;;;;;48.53;27.17;;;;;;;3.82;89.10;99519.56;4909990;28;20056;-61
2023/03/23 11:27:34;;;;;;;54.63;29.23;;;;;;;3.61;88.85;99493.72;4910433;28;20120;-61
2023/03/23 11:30:11;;;;;;;57.50;26.73;;;;;;;3.81;89.26;99502.31;4914790;28;20046;-61
2023/03/23 11:32:47;;;;;;;46.95;26.80;;;;;;;3.52;89.01;99447.22;4925450;28;20052;-61
2023/03/23 11:35:23;;;;;;;50.67;23.73;;;;;;;3.88;89.51;99498.00;4915446;28;20047;-60
2023/03/23 11:37:56;;;;;;;44.15;24.13;;;;;;;4.03;89.13;99512.63;4921645;28;20057;-61
2023/03/23 11:40:35;;;;;;;46.15;23.92;;;;;;;3.98;89.21;99519.53;4910982;28;20056;-62
2023/03/23 11:43:11;;;;;;;41.60;21.85;;;;;;;4.01;89.39;99514.34;4904375;28;20040;-62
2023/03/23 11:45:51;;;;;;;42.70;22.40;;;;;;;4.06;89.01;99522.97;4925831;28;20213;-62
2023/03/23 11:48:38;;;;;;;49.67;24.80;;;;;;;4.00;88.91;99523.84;4902059;28;20040;-61